sensor_id;sensor_type;location;lat;lon;timestamp;P1;durP1;ratioP1;P2;durP2;ratioP2
47053;SDS011;32811;52.382;5.270;2023-06-26T00:00:29;4.70;;;3.70;;
47053;SDS011;32811;52.382;5.270;2023-06-26T00:02:56;4.15;;;3.80;;
47053;SDS011;32811;52.382;5.270;2023-06-26T00:05:23;4.80;;;3.53;;
47053;SDS011;32811;52.382;5.270;2023-06-26T00:07:50;3.28;;;2.97;;
47053;SDS011;32811;52.382;5.270;2023-06-26T00:10:16;6.10;;;3.40;;
47053;SDS011;32811;52.382;5.270;2023-06-26T00:12:43;3.15;;;2.85;;
47053;SDS011;32811;52.382;5.270;2023-06-26T00:15:09;3.40;;;3.10;;
47053;SDS011;32811;52.382;5.270;2023-06-26T00:17:37;3.47;;;3.17;;
47053;SDS011;32811;52.382;5.270;2023-06-26T00:20:04;3.97;;;3.58;;
47053;SDS011;32811;52.382;5.270;2023-06-26T00:22:35;4.05;;;3.65;;
47053;SDS011;32811;52.382;5.270;2023-06-26T00:25:01;3.40;;;3.10;;
47053;SDS011;32811;52.382;5.270;2023-06-26T00:27:28;5.07;;;3.78;;
47053;SDS011;32811;52.382;5.270;2023-06-26T00:29:55;6.65;;;3.30;;
47053;SDS011;32811;52.382;5.270;2023-06-26T00:32:21;4.88;;;3.45;;
47053;SDS011;32811;52.382;5.270;2023-06-26T00:34:48;4.22;;;3.83;;
47053;SDS011;32811;52.382;5.270;2023-06-26T00:37:15;6.55;;;3.95;;
47053;SDS011;32811;52.382;5.270;2023-06-26T00:39:42;6.72;;;3.45;;
47053;SDS011;32811;52.382;5.270;2023-06-26T00:42:08;3.95;;;3.55;;
47053;SDS011;32811;52.382;5.270;2023-06-26T00:44:35;3.50;;;3.05;;
47053;SDS011;32811;52.382;5.270;2023-06-26T00:47:01;4.65;;;3.45;;
47053;SDS011;32811;52.382;5.270;2023-06-26T00:49:28;3.50;;;3.20;;
47053;SDS011;32811;52.382;5.270;2023-06-26T00:51:55;4.65;;;3.05;;
47053;SDS011;32811;52.382;5.270;2023-06-26T00:54:22;4.97;;;3.63;;
47053;SDS011;32811;52.382;5.270;2023-06-26T00:56:49;3.80;;;3.42;;
47053;SDS011;32811;52.382;5.270;2023-06-26T00:59:16;4.10;;;3.35;;
47053;SDS011;32811;52.382;5.270;2023-06-26T01:01:42;5.05;;;3.17;;
47053;SDS011;32811;52.382;5.270;2023-06-26T01:04:09;5.20;;;3.60;;
47053;SDS011;32811;52.382;5.270;2023-06-26T01:09:18;4.72;;;3.42;;
47053;SDS011;32811;52.382;5.270;2023-06-26T01:11:45;3.70;;;3.40;;
47053;SDS011;32811;52.382;5.270;2023-06-26T01:14:13;3.85;;;3.10;;
47053;SDS011;32811;52.382;5.270;2023-06-26T01:16:40;6.40;;;2.92;;
47053;SDS011;32811;52.382;5.270;2023-06-26T01:19:16;6.07;;;4.80;;
47053;SDS011;32811;52.382;5.270;2023-06-26T01:21:55;3.92;;;3.05;;
47053;SDS011;32811;52.382;5.270;2023-06-26T01:24:28;9.98;;;3.28;;
47053;SDS011;32811;52.382;5.270;2023-06-26T01:26:59;4.00;;;2.55;;
47053;SDS011;32811;52.382;5.270;2023-06-26T01:29:30;5.40;;;2.83;;
47053;SDS011;32811;52.382;5.270;2023-06-26T01:31:59;5.22;;;3.03;;
47053;SDS011;32811;52.382;5.270;2023-06-26T01:34:27;8.63;;;2.50;;
47053;SDS011;32811;52.382;5.270;2023-06-26T01:36:54;4.22;;;2.90;;
47053;SDS011;32811;52.382;5.270;2023-06-26T01:39:21;4.95;;;3.00;;
47053;SDS011;32811;52.382;5.270;2023-06-26T01:41:48;7.65;;;2.42;;
47053;SDS011;32811;52.382;5.270;2023-06-26T01:44:23;3.17;;;2.85;;
47053;SDS011;32811;52.382;5.270;2023-06-26T01:47:01;10.07;;;3.50;;
47053;SDS011;32811;52.382;5.270;2023-06-26T01:57:18;6.35;;;2.88;;
47053;SDS011;32811;52.382;5.270;2023-06-26T01:59:50;5.93;;;3.30;;
47053;SDS011;32811;52.382;5.270;2023-06-26T02:02:18;4.68;;;3.55;;
47053;SDS011;32811;52.382;5.270;2023-06-26T02:04:45;11.27;;;3.40;;
47053;SDS011;32811;52.382;5.270;2023-06-26T02:07:14;5.03;;;3.42;;
47053;SDS011;32811;52.382;5.270;2023-06-26T02:09:41;4.78;;;3.50;;
47053;SDS011;32811;52.382;5.270;2023-06-26T02:12:08;11.02;;;4.00;;
47053;SDS011;32811;52.382;5.270;2023-06-26T02:14:35;5.30;;;2.97;;
47053;SDS011;32811;52.382;5.270;2023-06-26T02:17:01;6.15;;;2.70;;
47053;SDS011;32811;52.382;5.270;2023-06-26T02:19:28;6.82;;;3.38;;
47053;SDS011;32811;52.382;5.270;2023-06-26T02:21:55;5.50;;;2.75;;
47053;SDS011;32811;52.382;5.270;2023-06-26T02:24:22;7.90;;;3.10;;
47053;SDS011;32811;52.382;5.270;2023-06-26T02:26:48;5.72;;;3.30;;
47053;SDS011;32811;52.382;5.270;2023-06-26T02:29:16;4.80;;;2.95;;
47053;SDS011;32811;52.382;5.270;2023-06-26T02:31:42;5.90;;;3.00;;
47053;SDS011;32811;52.382;5.270;2023-06-26T02:34:09;8.55;;;3.53;;
47053;SDS011;32811;52.382;5.270;2023-06-26T02:36:36;12.45;;;3.90;;
47053;SDS011;32811;52.382;5.270;2023-06-26T02:39:03;7.07;;;3.60;;
47053;SDS011;32811;52.382;5.270;2023-06-26T02:41:29;9.50;;;2.90;;
47053;SDS011;32811;52.382;5.270;2023-06-26T02:43:56;9.15;;;3.70;;
47053;SDS011;32811;52.382;5.270;2023-06-26T02:46:23;6.53;;;3.28;;
47053;SDS011;32811;52.382;5.270;2023-06-26T02:48:49;6.30;;;3.38;;
47053;SDS011;32811;52.382;5.270;2023-06-26T02:51:16;7.97;;;3.38;;
47053;SDS011;32811;52.382;5.270;2023-06-26T02:53:42;7.85;;;3.92;;
47053;SDS011;32811;52.382;5.270;2023-06-26T02:56:09;10.95;;;3.20;;
47053;SDS011;32811;52.382;5.270;2023-06-26T02:58:36;10.60;;;3.67;;
47053;SDS011;32811;52.382;5.270;2023-06-26T03:01:02;6.97;;;3.20;;
47053;SDS011;32811;52.382;5.270;2023-06-26T03:03:29;11.95;;;4.20;;
47053;SDS011;32811;52.382;5.270;2023-06-26T03:05:56;11.05;;;3.80;;
47053;SDS011;32811;52.382;5.270;2023-06-26T03:08:23;9.55;;;3.72;;
47053;SDS011;32811;52.382;5.270;2023-06-26T03:10:50;11.48;;;4.22;;
47053;SDS011;32811;52.382;5.270;2023-06-26T03:13:16;12.77;;;3.75;;
47053;SDS011;32811;52.382;5.270;2023-06-26T03:15:43;10.43;;;3.85;;
47053;SDS011;32811;52.382;5.270;2023-06-26T03:18:10;12.57;;;3.63;;
47053;SDS011;32811;52.382;5.270;2023-06-26T03:20:36;18.77;;;4.07;;
47053;SDS011;32811;52.382;5.270;2023-06-26T03:23:03;8.93;;;3.35;;
47053;SDS011;32811;52.382;5.270;2023-06-26T03:25:30;10.25;;;3.78;;
47053;SDS011;32811;52.382;5.270;2023-06-26T03:27:57;15.52;;;3.92;;
47053;SDS011;32811;52.382;5.270;2023-06-26T03:30:23;12.10;;;4.38;;
47053;SDS011;32811;52.382;5.270;2023-06-26T03:32:50;10.73;;;3.53;;
47053;SDS011;32811;52.382;5.270;2023-06-26T03:35:17;10.45;;;3.08;;
47053;SDS011;32811;52.382;5.270;2023-06-26T03:37:44;9.00;;;3.35;;
47053;SDS011;32811;52.382;5.270;2023-06-26T03:40:10;8.10;;;3.17;;
47053;SDS011;32811;52.382;5.270;2023-06-26T03:42:38;10.27;;;3.50;;
47053;SDS011;32811;52.382;5.270;2023-06-26T03:45:05;10.57;;;4.40;;
47053;SDS011;32811;52.382;5.270;2023-06-26T03:47:32;9.93;;;3.40;;
47053;SDS011;32811;52.382;5.270;2023-06-26T03:49:59;14.48;;;2.83;;
47053;SDS011;32811;52.382;5.270;2023-06-26T03:52:25;11.77;;;4.80;;
47053;SDS011;32811;52.382;5.270;2023-06-26T03:54:52;12.43;;;3.67;;
47053;SDS011;32811;52.382;5.270;2023-06-26T03:57:19;10.15;;;3.53;;
47053;SDS011;32811;52.382;5.270;2023-06-26T03:59:45;7.07;;;3.13;;
47053;SDS011;32811;52.382;5.270;2023-06-26T04:02:13;7.97;;;2.85;;
47053;SDS011;32811;52.382;5.270;2023-06-26T04:04:40;5.78;;;2.80;;
47053;SDS011;32811;52.382;5.270;2023-06-26T04:07:06;10.70;;;3.63;;
47053;SDS011;32811;52.382;5.270;2023-06-26T04:09:33;6.45;;;2.53;;
47053;SDS011;32811;52.382;5.270;2023-06-26T04:12:00;10.38;;;2.85;;
47053;SDS011;32811;52.382;5.270;2023-06-26T04:14:27;8.38;;;2.25;;
47053;SDS011;32811;52.382;5.270;2023-06-26T04:16:53;8.10;;;3.10;;
47053;SDS011;32811;52.382;5.270;2023-06-26T04:19:20;9.25;;;2.40;;
47053;SDS011;32811;52.382;5.270;2023-06-26T04:21:47;7.30;;;2.70;;
47053;SDS011;32811;52.382;5.270;2023-06-26T04:24:13;7.05;;;2.35;;
47053;SDS011;32811;52.382;5.270;2023-06-26T04:26:41;5.93;;;2.40;;
47053;SDS011;32811;52.382;5.270;2023-06-26T04:29:07;6.10;;;2.25;;
47053;SDS011;32811;52.382;5.270;2023-06-26T04:31:34;4.80;;;2.10;;
47053;SDS011;32811;52.382;5.270;2023-06-26T04:34:01;3.72;;;2.20;;
47053;SDS011;32811;52.382;5.270;2023-06-26T04:36:27;4.22;;;2.00;;
47053;SDS011;32811;52.382;5.270;2023-06-26T04:38:55;6.68;;;2.00;;
47053;SDS011;32811;52.382;5.270;2023-06-26T04:41:22;3.83;;;1.70;;
47053;SDS011;32811;52.382;5.270;2023-06-26T04:43:49;5.82;;;2.10;;
47053;SDS011;32811;52.382;5.270;2023-06-26T04:46:15;6.00;;;2.08;;
47053;SDS011;32811;52.382;5.270;2023-06-26T04:48:42;4.00;;;2.05;;
47053;SDS011;32811;52.382;5.270;2023-06-26T04:51:11;6.40;;;1.92;;
47053;SDS011;32811;52.382;5.270;2023-06-26T04:53:37;5.78;;;2.05;;
47053;SDS011;32811;52.382;5.270;2023-06-26T04:56:04;4.22;;;2.15;;
47053;SDS011;32811;52.382;5.270;2023-06-26T04:58:32;4.30;;;2.13;;
47053;SDS011;32811;52.382;5.270;2023-06-26T05:00:59;5.07;;;2.80;;
47053;SDS011;32811;52.382;5.270;2023-06-26T05:03:29;8.10;;;1.80;;
47053;SDS011;32811;52.382;5.270;2023-06-26T05:05:56;4.40;;;1.70;;
47053;SDS011;32811;52.382;5.270;2023-06-26T05:08:23;4.18;;;2.55;;
47053;SDS011;32811;52.382;5.270;2023-06-26T05:10:52;4.30;;;1.60;;
47053;SDS011;32811;52.382;5.270;2023-06-26T05:13:25;3.05;;;1.55;;
47053;SDS011;32811;52.382;5.270;2023-06-26T05:15:52;8.20;;;1.75;;
47053;SDS011;32811;52.382;5.270;2023-06-26T05:18:19;5.22;;;1.50;;
47053;SDS011;32811;52.382;5.270;2023-06-26T05:20:46;3.67;;;1.40;;
47053;SDS011;32811;52.382;5.270;2023-06-26T05:23:13;5.28;;;2.15;;
47053;SDS011;32811;52.382;5.270;2023-06-26T05:25:42;4.53;;;1.35;;
47053;SDS011;32811;52.382;5.270;2023-06-26T05:28:09;2.45;;;1.35;;
47053;SDS011;32811;52.382;5.270;2023-06-26T05:30:38;4.35;;;1.33;;
47053;SDS011;32811;52.382;5.270;2023-06-26T05:33:05;2.17;;;1.40;;
47053;SDS011;32811;52.382;5.270;2023-06-26T05:35:34;4.80;;;1.20;;
47053;SDS011;32811;52.382;5.270;2023-06-26T05:38:02;3.90;;;1.20;;
47053;SDS011;32811;52.382;5.270;2023-06-26T05:40:29;4.75;;;1.67;;
47053;SDS011;32811;52.382;5.270;2023-06-26T05:42:56;2.63;;;1.00;;
47053;SDS011;32811;52.382;5.270;2023-06-26T05:45:23;5.18;;;1.38;;
47053;SDS011;32811;52.382;5.270;2023-06-26T05:47:49;6.30;;;1.40;;
47053;SDS011;32811;52.382;5.270;2023-06-26T05:50:18;4.50;;;1.20;;
47053;SDS011;32811;52.382;5.270;2023-06-26T05:52:47;2.97;;;1.10;;
47053;SDS011;32811;52.382;5.270;2023-06-26T05:55:14;2.45;;;1.10;;
47053;SDS011;32811;52.382;5.270;2023-06-26T05:57:43;2.15;;;1.00;;
47053;SDS011;32811;52.382;5.270;2023-06-26T06:00:12;2.28;;;1.13;;
47053;SDS011;32811;52.382;5.270;2023-06-26T06:02:39;6.32;;;1.52;;
47053;SDS011;32811;52.382;5.270;2023-06-26T06:05:08;5.50;;;1.50;;
47053;SDS011;32811;52.382;5.270;2023-06-26T06:07:35;4.28;;;1.92;;
47053;SDS011;32811;52.382;5.270;2023-06-26T06:10:02;2.25;;;1.10;;
47053;SDS011;32811;52.382;5.270;2023-06-26T06:12:30;3.45;;;1.30;;
47053;SDS011;32811;52.382;5.270;2023-06-26T06:14:57;7.57;;;2.92;;
47053;SDS011;32811;52.382;5.270;2023-06-26T06:17:23;4.43;;;1.35;;
47053;SDS011;32811;52.382;5.270;2023-06-26T06:19:50;5.78;;;1.17;;
47053;SDS011;32811;52.382;5.270;2023-06-26T06:22:17;6.25;;;1.90;;
47053;SDS011;32811;52.382;5.270;2023-06-26T06:24:44;2.33;;;0.93;;
47053;SDS011;32811;52.382;5.270;2023-06-26T06:27:11;3.28;;;1.30;;
47053;SDS011;32811;52.382;5.270;2023-06-26T06:29:37;3.58;;;1.13;;
47053;SDS011;32811;52.382;5.270;2023-06-26T06:32:04;2.17;;;0.90;;
47053;SDS011;32811;52.382;5.270;2023-06-26T06:34:31;1.90;;;0.85;;
47053;SDS011;32811;52.382;5.270;2023-06-26T06:36:58;7.07;;;2.17;;
47053;SDS011;32811;52.382;5.270;2023-06-26T06:39:25;6.55;;;1.38;;
47053;SDS011;32811;52.382;5.270;2023-06-26T06:41:52;3.35;;;1.20;;
47053;SDS011;32811;52.382;5.270;2023-06-26T06:44:18;4.13;;;1.50;;
47053;SDS011;32811;52.382;5.270;2023-06-26T06:46:45;4.85;;;1.70;;
47053;SDS011;32811;52.382;5.270;2023-06-26T06:49:11;4.32;;;1.20;;
47053;SDS011;32811;52.382;5.270;2023-06-26T06:51:38;6.10;;;1.17;;
47053;SDS011;32811;52.382;5.270;2023-06-26T06:54:05;3.95;;;1.63;;
47053;SDS011;32811;52.382;5.270;2023-06-26T06:56:31;3.42;;;1.50;;
47053;SDS011;32811;52.382;5.270;2023-06-26T06:58:58;5.80;;;1.15;;
47053;SDS011;32811;52.382;5.270;2023-06-26T07:01:25;2.75;;;1.10;;
47053;SDS011;32811;52.382;5.270;2023-06-26T07:03:52;6.40;;;1.88;;
47053;SDS011;32811;52.382;5.270;2023-06-26T07:06:18;3.20;;;1.10;;
47053;SDS011;32811;52.382;5.270;2023-06-26T07:08:45;4.30;;;1.40;;
47053;SDS011;32811;52.382;5.270;2023-06-26T07:11:12;3.67;;;1.40;;
47053;SDS011;32811;52.382;5.270;2023-06-26T07:13:38;3.33;;;1.38;;
47053;SDS011;32811;52.382;5.270;2023-06-26T07:16:05;4.20;;;1.45;;
47053;SDS011;32811;52.382;5.270;2023-06-26T07:18:32;3.55;;;1.30;;
47053;SDS011;32811;52.382;5.270;2023-06-26T07:20:58;4.82;;;1.50;;
47053;SDS011;32811;52.382;5.270;2023-06-26T07:23:25;5.78;;;1.85;;
47053;SDS011;32811;52.382;5.270;2023-06-26T07:25:53;4.82;;;1.38;;
47053;SDS011;32811;52.382;5.270;2023-06-26T07:28:20;5.32;;;1.40;;
47053;SDS011;32811;52.382;5.270;2023-06-26T07:30:46;6.70;;;1.63;;
47053;SDS011;32811;52.382;5.270;2023-06-26T07:33:13;4.45;;;1.52;;
47053;SDS011;32811;52.382;5.270;2023-06-26T07:35:40;5.28;;;1.40;;
47053;SDS011;32811;52.382;5.270;2023-06-26T07:38:07;4.05;;;1.30;;
47053;SDS011;32811;52.382;5.270;2023-06-26T07:40:33;7.07;;;1.90;;
47053;SDS011;32811;52.382;5.270;2023-06-26T07:43:00;3.60;;;1.40;;
47053;SDS011;32811;52.382;5.270;2023-06-26T07:45:27;9.45;;;2.90;;
47053;SDS011;32811;52.382;5.270;2023-06-26T07:47:54;10.00;;;1.73;;
47053;SDS011;32811;52.382;5.270;2023-06-26T07:50:21;5.00;;;1.40;;
47053;SDS011;32811;52.382;5.270;2023-06-26T07:52:49;6.63;;;2.08;;
47053;SDS011;32811;52.382;5.270;2023-06-26T07:55:16;9.43;;;2.60;;
47053;SDS011;32811;52.382;5.270;2023-06-26T07:57:43;6.07;;;1.63;;
47053;SDS011;32811;52.382;5.270;2023-06-26T08:00:12;6.05;;;2.00;;
47053;SDS011;32811;52.382;5.270;2023-06-26T08:02:39;10.93;;;1.67;;
47053;SDS011;32811;52.382;5.270;2023-06-26T08:05:05;7.50;;;1.92;;
47053;SDS011;32811;52.382;5.270;2023-06-26T08:07:32;5.50;;;1.67;;
47053;SDS011;32811;52.382;5.270;2023-06-26T08:09:59;7.35;;;2.35;;
47053;SDS011;32811;52.382;5.270;2023-06-26T08:12:26;6.63;;;1.90;;
47053;SDS011;32811;52.382;5.270;2023-06-26T08:14:52;6.40;;;1.50;;
47053;SDS011;32811;52.382;5.270;2023-06-26T08:17:19;3.38;;;1.10;;
47053;SDS011;32811;52.382;5.270;2023-06-26T08:19:46;9.48;;;1.60;;
47053;SDS011;32811;52.382;5.270;2023-06-26T08:22:12;10.35;;;1.70;;
47053;SDS011;32811;52.382;5.270;2023-06-26T08:24:39;5.15;;;1.30;;
47053;SDS011;32811;52.382;5.270;2023-06-26T08:27:06;6.93;;;1.55;;
47053;SDS011;32811;52.382;5.270;2023-06-26T08:29:34;10.73;;;2.10;;
47053;SDS011;32811;52.382;5.270;2023-06-26T08:32:01;6.78;;;1.48;;
47053;SDS011;32811;52.382;5.270;2023-06-26T08:34:28;5.63;;;1.35;;
47053;SDS011;32811;52.382;5.270;2023-06-26T08:36:55;6.28;;;1.25;;
47053;SDS011;32811;52.382;5.270;2023-06-26T08:39:21;6.43;;;1.63;;
47053;SDS011;32811;52.382;5.270;2023-06-26T08:41:48;5.43;;;1.30;;
47053;SDS011;32811;52.382;5.270;2023-06-26T08:44:15;8.02;;;1.35;;
47053;SDS011;32811;52.382;5.270;2023-06-26T08:46:42;6.60;;;1.25;;
47053;SDS011;32811;52.382;5.270;2023-06-26T08:49:18;5.28;;;1.40;;
47053;SDS011;32811;52.382;5.270;2023-06-26T08:51:51;10.27;;;1.58;;
47053;SDS011;32811;52.382;5.270;2023-06-26T08:54:25;5.35;;;1.30;;
47053;SDS011;32811;52.382;5.270;2023-06-26T08:56:57;6.88;;;1.27;;
47053;SDS011;32811;52.382;5.270;2023-06-26T08:59:25;14.00;;;1.55;;
47053;SDS011;32811;52.382;5.270;2023-06-26T09:01:52;9.27;;;2.58;;
47053;SDS011;32811;52.382;5.270;2023-06-26T09:04:19;6.18;;;1.10;;
47053;SDS011;32811;52.382;5.270;2023-06-26T09:06:45;5.38;;;1.30;;
47053;SDS011;32811;52.382;5.270;2023-06-26T09:09:12;4.57;;;1.17;;
47053;SDS011;32811;52.382;5.270;2023-06-26T09:11:39;5.00;;;1.10;;
47053;SDS011;32811;52.382;5.270;2023-06-26T09:14:06;5.80;;;1.48;;
47053;SDS011;32811;52.382;5.270;2023-06-26T09:16:39;7.97;;;2.05;;
47053;SDS011;32811;52.382;5.270;2023-06-26T09:19:10;8.73;;;1.48;;
47053;SDS011;32811;52.382;5.270;2023-06-26T09:21:41;7.20;;;1.98;;
47053;SDS011;32811;52.382;5.270;2023-06-26T09:24:09;3.50;;;1.13;;
47053;SDS011;32811;52.382;5.270;2023-06-26T09:26:37;6.93;;;1.52;;
47053;SDS011;32811;52.382;5.270;2023-06-26T09:29:05;6.25;;;1.65;;
47053;SDS011;32811;52.382;5.270;2023-06-26T09:31:33;7.80;;;1.20;;
47053;SDS011;32811;52.382;5.270;2023-06-26T09:34:07;5.22;;;1.52;;
47053;SDS011;32811;52.382;5.270;2023-06-26T09:36:34;3.70;;;1.30;;
47053;SDS011;32811;52.382;5.270;2023-06-26T09:39:06;4.72;;;1.08;;
47053;SDS011;32811;52.382;5.270;2023-06-26T09:41:38;6.60;;;1.10;;
47053;SDS011;32811;52.382;5.270;2023-06-26T09:44:07;6.80;;;2.35;;
47053;SDS011;32811;52.382;5.270;2023-06-26T09:46:37;4.82;;;1.48;;
47053;SDS011;32811;52.382;5.270;2023-06-26T09:49:05;4.35;;;1.30;;
47053;SDS011;32811;52.382;5.270;2023-06-26T09:51:34;6.07;;;1.50;;
47053;SDS011;32811;52.382;5.270;2023-06-26T09:54:02;7.90;;;1.25;;
47053;SDS011;32811;52.382;5.270;2023-06-26T09:56:30;10.60;;;1.00;;
47053;SDS011;32811;52.382;5.270;2023-06-26T09:59:01;12.52;;;2.00;;
47053;SDS011;32811;52.382;5.270;2023-06-26T10:01:29;4.28;;;1.05;;
47053;SDS011;32811;52.382;5.270;2023-06-26T10:03:57;8.10;;;1.50;;
47053;SDS011;32811;52.382;5.270;2023-06-26T10:11:29;5.13;;;0.60;;
47053;SDS011;32811;52.382;5.270;2023-06-26T10:14:03;4.15;;;0.70;;
47053;SDS011;32811;52.382;5.270;2023-06-26T10:16:43;2.95;;;0.60;;
47053;SDS011;32811;52.382;5.270;2023-06-26T10:19:13;6.57;;;0.95;;
47053;SDS011;32811;52.382;5.270;2023-06-26T10:21:43;4.95;;;0.70;;
47053;SDS011;32811;52.382;5.270;2023-06-26T10:24:10;5.32;;;0.65;;
47053;SDS011;32811;52.382;5.270;2023-06-26T10:26:41;3.55;;;0.70;;
47053;SDS011;32811;52.382;5.270;2023-06-26T10:29:11;1.35;;;0.50;;
47053;SDS011;32811;52.382;5.270;2023-06-26T10:31:42;4.50;;;0.98;;
47053;SDS011;32811;52.382;5.270;2023-06-26T10:34:12;3.20;;;0.80;;
47053;SDS011;32811;52.382;5.270;2023-06-26T10:36:39;3.20;;;0.75;;
47053;SDS011;32811;52.382;5.270;2023-06-26T10:39:07;2.13;;;0.57;;
47053;SDS011;32811;52.382;5.270;2023-06-26T10:41:38;4.03;;;0.68;;
47053;SDS011;32811;52.382;5.270;2023-06-26T10:44:27;2.15;;;0.80;;
47053;SDS011;32811;52.382;5.270;2023-06-26T10:46:54;2.92;;;0.80;;
47053;SDS011;32811;52.382;5.270;2023-06-26T10:49:27;2.92;;;1.13;;
47053;SDS011;32811;52.382;5.270;2023-06-26T10:51:55;2.10;;;0.80;;
47053;SDS011;32811;52.382;5.270;2023-06-26T10:54:27;2.20;;;0.60;;
47053;SDS011;32811;52.382;5.270;2023-06-26T10:56:55;3.15;;;0.77;;
47053;SDS011;32811;52.382;5.270;2023-06-26T10:59:26;2.88;;;0.60;;
47053;SDS011;32811;52.382;5.270;2023-06-26T11:04:37;4.70;;;0.70;;
47053;SDS011;32811;52.382;5.270;2023-06-26T11:09:56;6.65;;;0.80;;
47053;SDS011;32811;52.382;5.270;2023-06-26T11:15:11;6.85;;;1.02;;
47053;SDS011;32811;52.382;5.270;2023-06-26T11:17:40;4.80;;;0.73;;
47053;SDS011;32811;52.382;5.270;2023-06-26T11:20:08;2.90;;;0.57;;
47053;SDS011;32811;52.382;5.270;2023-06-26T11:22:37;4.95;;;0.60;;
47053;SDS011;32811;52.382;5.270;2023-06-26T11:25:05;5.30;;;0.82;;
47053;SDS011;32811;52.382;5.270;2023-06-26T11:27:42;3.38;;;0.60;;
47053;SDS011;32811;52.382;5.270;2023-06-26T11:30:21;2.70;;;0.88;;
47053;SDS011;32811;52.382;5.270;2023-06-26T11:32:49;3.28;;;1.15;;
47053;SDS011;32811;52.382;5.270;2023-06-26T11:35:25;4.95;;;0.75;;
47053;SDS011;32811;52.382;5.270;2023-06-26T11:37:58;3.38;;;0.75;;
47053;SDS011;32811;52.382;5.270;2023-06-26T11:40:34;5.53;;;0.60;;
47053;SDS011;32811;52.382;5.270;2023-06-26T11:43:03;3.63;;;0.60;;
47053;SDS011;32811;52.382;5.270;2023-06-26T11:45:31;3.83;;;0.95;;
47053;SDS011;32811;52.382;5.270;2023-06-26T11:47:59;6.60;;;0.82;;
47053;SDS011;32811;52.382;5.270;2023-06-26T11:50:27;6.70;;;0.70;;
47053;SDS011;32811;52.382;5.270;2023-06-26T11:52:57;4.75;;;0.93;;
47053;SDS011;32811;52.382;5.270;2023-06-26T11:58:23;6.72;;;0.90;;
47053;SDS011;32811;52.382;5.270;2023-06-26T12:00:50;4.88;;;0.50;;
47053;SDS011;32811;52.382;5.270;2023-06-26T12:03:17;2.58;;;0.75;;
47053;SDS011;32811;52.382;5.270;2023-06-26T12:08:32;2.78;;;1.10;;
47053;SDS011;32811;52.382;5.270;2023-06-26T12:10:58;7.72;;;0.90;;
47053;SDS011;32811;52.382;5.270;2023-06-26T12:13:25;4.93;;;1.00;;
47053;SDS011;32811;52.382;5.270;2023-06-26T12:15:52;5.60;;;1.10;;
47053;SDS011;32811;52.382;5.270;2023-06-26T12:18:20;5.65;;;1.25;;
47053;SDS011;32811;52.382;5.270;2023-06-26T12:20:51;2.78;;;0.80;;
47053;SDS011;32811;52.382;5.270;2023-06-26T12:23:19;6.55;;;0.75;;
47053;SDS011;32811;52.382;5.270;2023-06-26T12:25:46;3.90;;;0.73;;
47053;SDS011;32811;52.382;5.270;2023-06-26T12:28:16;4.50;;;0.90;;
47053;SDS011;32811;52.382;5.270;2023-06-26T12:30:47;4.05;;;0.80;;
47053;SDS011;32811;52.382;5.270;2023-06-26T12:33:36;2.95;;;0.85;;
47053;SDS011;32811;52.382;5.270;2023-06-26T12:36:03;1.83;;;0.65;;
47053;SDS011;32811;52.382;5.270;2023-06-26T12:38:33;4.43;;;0.90;;
47053;SDS011;32811;52.382;5.270;2023-06-26T12:41:00;3.35;;;0.57;;
47053;SDS011;32811;52.382;5.270;2023-06-26T12:43:27;7.00;;;0.90;;
47053;SDS011;32811;52.382;5.270;2023-06-26T12:48:46;7.47;;;0.85;;
47053;SDS011;32811;52.382;5.270;2023-06-26T12:51:14;8.48;;;1.77;;
47053;SDS011;32811;52.382;5.270;2023-06-26T12:53:42;5.95;;;1.10;;
47053;SDS011;32811;52.382;5.270;2023-06-26T12:56:09;4.13;;;0.80;;
47053;SDS011;32811;52.382;5.270;2023-06-26T13:01:11;2.47;;;0.60;;
47053;SDS011;32811;52.382;5.270;2023-06-26T13:03:41;7.97;;;0.90;;
47053;SDS011;32811;52.382;5.270;2023-06-26T13:08:35;4.30;;;1.08;;
47053;SDS011;32811;52.382;5.270;2023-06-26T13:11:03;2.88;;;1.02;;
47053;SDS011;32811;52.382;5.270;2023-06-26T13:13:30;5.50;;;1.40;;
47053;SDS011;32811;52.382;5.270;2023-06-26T13:15:56;3.47;;;0.73;;
47053;SDS011;32811;52.382;5.270;2023-06-26T13:18:23;3.85;;;1.30;;
47053;SDS011;32811;52.382;5.270;2023-06-26T13:20:50;2.60;;;0.98;;
47053;SDS011;32811;52.382;5.270;2023-06-26T13:23:17;6.70;;;0.80;;
47053;SDS011;32811;52.382;5.270;2023-06-26T13:25:45;6.57;;;0.60;;
47053;SDS011;32811;52.382;5.270;2023-06-26T13:28:12;2.75;;;0.55;;
47053;SDS011;32811;52.382;5.270;2023-06-26T13:30:39;4.50;;;0.70;;
47053;SDS011;32811;52.382;5.270;2023-06-26T13:35:48;2.42;;;0.57;;
47053;SDS011;32811;52.382;5.270;2023-06-26T13:38:15;7.63;;;0.80;;
47053;SDS011;32811;52.382;5.270;2023-06-26T13:40:42;1.50;;;0.68;;
47053;SDS011;32811;52.382;5.270;2023-06-26T13:45:50;4.05;;;0.50;;
47053;SDS011;32811;52.382;5.270;2023-06-26T13:48:17;3.70;;;0.70;;
47053;SDS011;32811;52.382;5.270;2023-06-26T13:50:44;12.30;;;0.85;;
47053;SDS011;32811;52.382;5.270;2023-06-26T13:53:20;4.20;;;0.65;;
47053;SDS011;32811;52.382;5.270;2023-06-26T13:55:47;7.40;;;0.65;;
47053;SDS011;32811;52.382;5.270;2023-06-26T13:58:14;3.40;;;0.50;;
47053;SDS011;32811;52.382;5.270;2023-06-26T14:00:41;3.60;;;0.82;;
47053;SDS011;32811;52.382;5.270;2023-06-26T14:03:11;3.08;;;0.52;;
47053;SDS011;32811;52.382;5.270;2023-06-26T14:05:38;2.75;;;1.05;;
47053;SDS011;32811;52.382;5.270;2023-06-26T14:08:08;4.20;;;0.65;;
47053;SDS011;32811;52.382;5.270;2023-06-26T14:10:35;5.55;;;0.90;;
47053;SDS011;32811;52.382;5.270;2023-06-26T14:13:03;3.40;;;0.50;;
47053;SDS011;32811;52.382;5.270;2023-06-26T14:15:30;3.90;;;0.77;;
47053;SDS011;32811;52.382;5.270;2023-06-26T14:18:00;2.80;;;0.43;;
47053;SDS011;32811;52.382;5.270;2023-06-26T14:20:29;2.22;;;0.40;;
47053;SDS011;32811;52.382;5.270;2023-06-26T14:22:59;1.85;;;0.73;;
47053;SDS011;32811;52.382;5.270;2023-06-26T14:25:26;2.45;;;0.80;;
47053;SDS011;32811;52.382;5.270;2023-06-26T14:27:55;2.03;;;0.57;;
47053;SDS011;32811;52.382;5.270;2023-06-26T14:30:22;7.55;;;1.10;;
47053;SDS011;32811;52.382;5.270;2023-06-26T14:32:49;3.75;;;0.60;;
47053;SDS011;32811;52.382;5.270;2023-06-26T14:35:16;2.80;;;0.60;;
47053;SDS011;32811;52.382;5.270;2023-06-26T14:37:43;3.53;;;1.25;;
47053;SDS011;32811;52.382;5.270;2023-06-26T14:40:10;3.78;;;0.68;;
47053;SDS011;32811;52.382;5.270;2023-06-26T14:42:38;3.05;;;0.93;;
47053;SDS011;32811;52.382;5.270;2023-06-26T14:45:05;2.00;;;0.68;;
47053;SDS011;32811;52.382;5.270;2023-06-26T14:47:33;2.20;;;0.60;;
47053;SDS011;32811;52.382;5.270;2023-06-26T14:50:00;2.83;;;0.55;;
47053;SDS011;32811;52.382;5.270;2023-06-26T14:52:27;3.38;;;0.55;;
47053;SDS011;32811;52.382;5.270;2023-06-26T14:54:53;1.35;;;0.50;;
47053;SDS011;32811;52.382;5.270;2023-06-26T14:57:20;3.53;;;0.70;;
47053;SDS011;32811;52.382;5.270;2023-06-26T14:59:47;3.33;;;0.60;;
47053;SDS011;32811;52.382;5.270;2023-06-26T15:02:14;4.32;;;0.95;;
47053;SDS011;32811;52.382;5.270;2023-06-26T15:04:40;1.25;;;0.50;;
47053;SDS011;32811;52.382;5.270;2023-06-26T15:07:07;4.72;;;0.90;;
47053;SDS011;32811;52.382;5.270;2023-06-26T15:09:34;7.65;;;0.70;;
47053;SDS011;32811;52.382;5.270;2023-06-26T15:12:00;3.90;;;0.60;;
47053;SDS011;32811;52.382;5.270;2023-06-26T15:14:27;4.28;;;0.65;;
47053;SDS011;32811;52.382;5.270;2023-06-26T15:16:54;2.55;;;0.50;;
47053;SDS011;32811;52.382;5.270;2023-06-26T15:19:21;4.30;;;0.65;;
47053;SDS011;32811;52.382;5.270;2023-06-26T15:21:47;2.75;;;0.68;;
47053;SDS011;32811;52.382;5.270;2023-06-26T15:24:14;2.05;;;0.50;;
47053;SDS011;32811;52.382;5.270;2023-06-26T15:26:41;5.13;;;0.63;;
47053;SDS011;32811;52.382;5.270;2023-06-26T15:29:08;1.77;;;0.73;;
47053;SDS011;32811;52.382;5.270;2023-06-26T15:31:34;1.73;;;0.50;;